createdAt,value
2017-10-08T00:00:34.225Z,13.63
2017-10-08T00:01:34.223Z,13.83
2017-10-08T00:02:34.221Z,13.71
2017-10-08T00:03:34.211Z,13.67
2017-10-08T00:04:34.214Z,13.81
2017-10-08T00:05:34.207Z,13.75
2017-10-08T00:06:34.206Z,13.85
2017-10-08T00:07:34.199Z,13.89
2017-10-08T00:08:34.193Z,13.67
2017-10-08T00:09:34.194Z,13.65
2017-10-08T00:10:34.188Z,13.67
2017-10-08T00:11:34.182Z,13.74
2017-10-08T00:12:34.179Z,13.49
2017-10-08T00:13:34.173Z,13.50
2017-10-08T00:14:34.176Z,13.50
2017-10-08T00:15:34.159Z,13.63
2017-10-08T00:16:34.168Z,13.71
2017-10-08T00:17:34.161Z,13.78
2017-10-08T00:18:34.154Z,13.77
2017-10-08T00:19:34.153Z,13.89
2017-10-08T00:20:34.152Z,13.86
2017-10-08T00:21:34.165Z,13.95
2017-10-08T00:22:34.142Z,13.75
2017-10-08T00:23:34.137Z,13.86
2017-10-08T00:24:34.139Z,14.03
2017-10-08T00:25:34.129Z,13.85
2017-10-08T00:26:34.127Z,13.75
2017-10-08T00:27:34.126Z,13.70
2017-10-08T00:28:34.111Z,13.56
2017-10-08T00:29:34.116Z,13.79
2017-10-08T00:30:34.111Z,13.79
2017-10-08T00:31:34.141Z,13.70
2017-10-08T00:32:34.101Z,13.74
2017-10-08T00:33:34.103Z,13.77
2017-10-08T00:34:34.099Z,13.75
2017-10-08T00:35:34.094Z,13.89
2017-10-08T00:36:34.090Z,13.79
2017-10-08T00:37:34.085Z,13.93
2017-10-08T00:38:34.080Z,13.74
2017-10-08T00:39:34.082Z,13.59
2017-10-08T00:40:34.074Z,13.85
2017-10-08T00:41:34.075Z,13.71
2017-10-08T00:42:34.068Z,13.63
2017-10-08T00:43:34.070Z,13.62
2017-10-08T00:44:34.073Z,13.59
2017-10-08T00:45:34.055Z,13.57
2017-10-08T00:46:34.053Z,13.86
2017-10-08T00:47:34.047Z,13.75
2017-10-08T00:48:34.068Z,13.78
2017-10-08T00:49:34.040Z,13.67
2017-10-08T00:50:34.045Z,13.46
2017-10-08T00:51:34.032Z,13.56
2017-10-08T00:52:34.031Z,13.59
2017-10-08T00:53:34.024Z,13.54
2017-10-08T00:54:34.020Z,13.53
2017-10-08T00:55:34.016Z,13.75
2017-10-08T00:56:34.025Z,13.68
2017-10-08T00:57:34.010Z,13.72
2017-10-08T00:58:34.007Z,13.72
2017-10-08T00:59:34.002Z,13.53
2017-10-08T01:00:33.998Z,13.65
2017-10-08T01:01:33.998Z,13.62
2017-10-08T01:02:33.988Z,13.49
2017-10-08T01:03:33.983Z,13.59
2017-10-08T01:04:33.979Z,13.59
2017-10-08T01:05:33.975Z,13.57
2017-10-08T01:06:33.972Z,13.46
2017-10-08T01:07:33.973Z,13.49
2017-10-08T01:08:33.961Z,13.39
2017-10-08T01:09:33.961Z,13.39
2017-10-08T01:10:33.956Z,13.65
2017-10-08T01:11:33.947Z,13.71
2017-10-08T01:12:33.946Z,13.50
2017-10-08T01:13:33.940Z,13.60
2017-10-08T01:14:33.940Z,13.68
2017-10-08T01:15:33.936Z,13.57
2017-10-08T01:16:33.934Z,13.44
2017-10-08T01:17:33.926Z,13.59
2017-10-08T01:18:33.927Z,13.47
2017-10-08T01:19:33.918Z,13.42
2017-10-08T01:20:33.914Z,13.37
2017-10-08T01:21:33.912Z,13.60
2017-10-08T01:22:33.906Z,13.56
2017-10-08T01:23:33.902Z,13.54
2017-10-08T01:24:33.899Z,13.47
2017-10-08T01:25:33.900Z,13.60
2017-10-08T01:26:33.890Z,13.39
2017-10-08T01:27:33.886Z,13.54
2017-10-08T01:28:33.880Z,13.39
2017-10-08T01:29:33.877Z,13.49
2017-10-08T01:30:33.871Z,13.52
2017-10-08T01:31:33.868Z,13.57
2017-10-08T01:32:33.864Z,13.52
2017-10-08T01:33:33.858Z,13.56
2017-10-08T01:34:33.856Z,13.47
2017-10-08T01:35:33.849Z,13.49
2017-10-08T01:36:33.846Z,13.27
2017-10-08T01:37:33.843Z,13.27
2017-10-08T01:38:33.842Z,13.31
2017-10-08T01:39:33.831Z,13.46
2017-10-08T01:40:33.830Z,13.49
2017-10-08T01:41:33.825Z,13.50
2017-10-08T01:42:33.822Z,13.23
2017-10-08T01:43:33.815Z,13.23
2017-10-08T01:44:33.811Z,13.18
2017-10-08T01:45:33.808Z,13.39
2017-10-08T01:46:33.807Z,13.27
2017-10-08T01:47:33.799Z,13.44
2017-10-08T01:48:33.799Z,13.28
2017-10-08T01:49:33.792Z,13.53
2017-10-08T01:50:33.787Z,13.52
2017-10-08T01:51:33.784Z,13.31
2017-10-08T01:52:33.780Z,13.41
2017-10-08T01:53:33.774Z,13.44
2017-10-08T01:54:33.775Z,13.38
2017-10-08T01:55:33.764Z,13.31
2017-10-08T01:56:33.761Z,13.37
2017-10-08T01:57:33.757Z,13.31
2017-10-08T01:58:33.751Z,13.31
2017-10-08T01:59:33.748Z,13.18
2017-10-08T02:00:33.740Z,13.33
2017-10-08T02:01:33.740Z,13.20
2017-10-08T02:02:33.735Z,13.22
2017-10-08T02:03:33.724Z,13.20
2017-10-08T02:04:33.731Z,13.16
2017-10-08T02:05:33.724Z,13.35
2017-10-08T02:06:33.718Z,13.33
2017-10-08T02:07:33.714Z,13.18
2017-10-08T02:08:33.706Z,13.35
2017-10-08T02:09:33.704Z,13.31
2017-10-08T02:10:33.699Z,13.33
2017-10-08T02:11:33.688Z,13.47
2017-10-08T02:12:33.690Z,13.28
2017-10-08T02:13:33.685Z,13.31
2017-10-08T02:14:33.683Z,13.35
2017-10-08T02:15:33.684Z,13.31
2017-10-08T02:16:33.676Z,13.28
2017-10-08T02:17:33.672Z,13.52
2017-10-08T02:18:33.656Z,13.50
2017-10-08T02:19:33.662Z,13.54
2017-10-08T02:20:33.676Z,13.31
2017-10-08T02:21:33.653Z,13.39
2017-10-08T02:22:33.649Z,13.41
2017-10-08T02:23:33.641Z,13.47
2017-10-08T02:24:33.657Z,13.44
2017-10-08T02:25:33.640Z,13.60
2017-10-08T02:26:33.632Z,13.65
2017-10-08T02:27:33.635Z,13.60
2017-10-08T02:28:33.621Z,13.60
2017-10-08T02:29:33.623Z,13.59
2017-10-08T02:30:33.615Z,13.63
2017-10-08T02:31:33.621Z,13.54
2017-10-08T02:32:33.613Z,13.53
2017-10-08T02:33:33.612Z,13.59
2017-10-08T02:34:33.599Z,13.74
2017-10-08T02:35:33.595Z,13.56
2017-10-08T02:36:33.592Z,13.59
2017-10-08T02:37:33.588Z,13.68
2017-10-08T02:38:33.581Z,13.60
2017-10-08T02:39:33.584Z,13.68
2017-10-08T02:40:33.609Z,13.70
2017-10-08T02:41:33.583Z,13.74
2017-10-08T02:42:33.568Z,13.75
2017-10-08T02:43:33.563Z,13.60
2017-10-08T02:44:33.587Z,13.57
2017-10-08T02:45:33.555Z,13.56
2017-10-08T02:46:33.554Z,13.71
2017-10-08T02:47:33.549Z,13.63
2017-10-08T02:48:33.545Z,13.65
2017-10-08T02:49:33.543Z,13.70
2017-10-08T02:50:33.537Z,13.60
2017-10-08T02:51:33.538Z,13.70
2017-10-08T02:52:33.531Z,13.62
2017-10-08T02:53:33.529Z,13.70
2017-10-08T02:54:33.521Z,13.72
2017-10-08T02:55:33.521Z,13.72
2017-10-08T02:56:33.517Z,13.72
2017-10-08T02:57:33.515Z,13.67
2017-10-08T02:58:33.509Z,13.79
2017-10-08T02:59:33.504Z,13.74
2017-10-08T03:00:33.504Z,13.65
2017-10-08T03:01:33.493Z,13.60
2017-10-08T03:02:33.498Z,13.78
2017-10-08T03:03:33.491Z,13.75
2017-10-08T03:04:33.490Z,13.53
2017-10-08T03:05:33.486Z,13.68
2017-10-08T03:06:33.481Z,13.77
2017-10-08T03:07:33.473Z,13.77
2017-10-08T03:08:33.492Z,13.65
2017-10-08T03:09:33.467Z,13.63
2017-10-08T03:10:33.464Z,13.74
2017-10-08T03:11:33.460Z,13.71
2017-10-08T03:12:33.455Z,13.63
2017-10-08T03:13:33.453Z,13.67
2017-10-08T03:14:33.449Z,13.53
2017-10-08T03:15:33.444Z,13.52
2017-10-08T03:16:33.448Z,13.54
2017-10-08T03:17:33.438Z,13.56
2017-10-08T03:18:33.432Z,13.65
2017-10-08T03:19:33.429Z,13.63
2017-10-08T03:20:33.423Z,13.52
2017-10-08T03:21:33.417Z,13.44
2017-10-08T03:22:33.414Z,13.63
2017-10-08T03:23:33.413Z,13.67
2017-10-08T03:24:33.408Z,13.57
2017-10-08T03:25:33.407Z,13.57
2017-10-08T03:26:33.401Z,13.59
2017-10-08T03:27:33.398Z,13.57
2017-10-08T03:28:33.393Z,13.57
2017-10-08T03:29:33.389Z,13.72
2017-10-08T03:30:33.382Z,13.57
2017-10-08T03:31:33.379Z,13.63
2017-10-08T03:32:33.376Z,13.60
2017-10-08T03:33:33.371Z,13.72
2017-10-08T03:34:33.374Z,13.71
2017-10-08T03:35:33.363Z,13.60
2017-10-08T03:36:33.359Z,13.57
2017-10-08T03:37:33.355Z,13.70
2017-10-08T03:38:33.351Z,13.68
2017-10-08T03:39:33.346Z,13.75
2017-10-08T03:40:33.339Z,13.60
2017-10-08T03:41:33.341Z,13.62
2017-10-08T03:42:33.336Z,13.52
2017-10-08T03:43:33.332Z,13.60
2017-10-08T03:44:33.349Z,13.65
2017-10-08T03:45:33.324Z,13.59
2017-10-08T03:46:33.320Z,13.62
2017-10-08T03:47:33.317Z,13.68
2017-10-08T03:48:33.315Z,13.56
2017-10-08T03:49:33.309Z,13.72
2017-10-08T03:50:33.309Z,13.75
2017-10-08T03:51:33.303Z,13.53
2017-10-08T03:52:33.295Z,13.68
2017-10-08T03:53:33.296Z,13.60
2017-10-08T03:54:33.289Z,13.67
2017-10-08T03:55:33.285Z,13.74
2017-10-08T03:56:33.287Z,13.72
2017-10-08T03:57:33.280Z,13.65
2017-10-08T03:58:33.270Z,13.60
2017-10-08T03:59:33.282Z,13.72
2017-10-08T04:00:33.270Z,13.79
2017-10-08T04:01:33.316Z,13.71
2017-10-08T04:02:33.268Z,13.74
2017-10-08T04:03:33.283Z,13.74
2017-10-08T04:04:33.257Z,13.75
2017-10-08T04:05:33.253Z,13.74
2017-10-08T04:06:33.247Z,13.68
2017-10-08T04:07:33.245Z,13.86
2017-10-08T04:08:33.238Z,13.77
2017-10-08T04:09:33.241Z,13.72
2017-10-08T04:10:33.229Z,13.83
2017-10-08T04:11:33.234Z,13.86
2017-10-08T04:12:33.223Z,13.52
2017-10-08T04:13:33.221Z,13.65
2017-10-08T04:14:33.252Z,13.62
2017-10-08T04:15:33.215Z,13.68
2017-10-08T04:16:33.213Z,13.71
2017-10-08T04:17:33.214Z,13.90
2017-10-08T04:18:33.203Z,13.72
2017-10-08T04:19:33.196Z,13.65
2017-10-08T04:20:33.200Z,13.71
2017-10-08T04:21:33.186Z,13.79
2017-10-08T04:22:33.187Z,13.87
2017-10-08T04:23:33.178Z,13.99
2017-10-08T04:24:33.185Z,13.97
2017-10-08T04:25:33.173Z,14.00
2017-10-08T04:26:33.171Z,13.96
2017-10-08T04:27:33.173Z,13.95
2017-10-08T04:28:33.159Z,13.77
2017-10-08T04:29:33.159Z,13.70
2017-10-08T04:30:33.185Z,13.85
2017-10-08T04:31:33.148Z,13.59
2017-10-08T04:32:33.151Z,13.71
2017-10-08T04:33:33.148Z,13.70
2017-10-08T04:34:33.139Z,13.67
2017-10-08T04:35:33.146Z,13.79
2017-10-08T04:36:33.133Z,13.79
2017-10-08T04:37:33.134Z,13.77
2017-10-08T04:38:33.122Z,13.71
2017-10-08T04:39:33.118Z,13.93
2017-10-08T04:40:33.122Z,14.00
2017-10-08T04:41:33.114Z,14.03
2017-10-08T04:42:33.113Z,14.07
2017-10-08T04:43:33.109Z,14.05
2017-10-08T04:44:33.105Z,13.86
2017-10-08T04:45:33.101Z,13.97
2017-10-08T04:46:33.097Z,13.90
2017-10-08T04:47:33.091Z,14.03
2017-10-08T04:48:33.100Z,14.00
2017-10-08T04:49:33.108Z,13.97
2017-10-08T04:50:33.084Z,13.89
2017-10-08T04:51:33.079Z,13.97
2017-10-08T04:52:33.073Z,13.75
2017-10-08T04:53:33.074Z,13.85
2017-10-08T04:54:33.068Z,14.08
2017-10-08T04:55:33.065Z,14.08
2017-10-08T04:56:33.063Z,14.07
2017-10-08T04:57:33.058Z,14.18
2017-10-08T04:58:33.059Z,14.05
2017-10-08T04:59:33.052Z,14.03
2017-10-08T05:00:33.052Z,13.86
2017-10-08T05:01:33.042Z,13.71
2017-10-08T05:02:33.040Z,13.93
2017-10-08T05:03:33.034Z,13.83
2017-10-08T05:04:33.032Z,13.67
2017-10-08T05:05:33.028Z,13.86
2017-10-08T05:06:33.027Z,13.93
2017-10-08T05:07:33.021Z,14.07
2017-10-08T05:08:33.023Z,14.07
2017-10-08T05:09:33.010Z,13.86
2017-10-08T05:10:33.010Z,13.75
2017-10-08T05:11:33.008Z,13.90
2017-10-08T05:12:33.024Z,13.93
2017-10-08T05:13:32.995Z,13.97
2017-10-08T05:14:32.998Z,14.08
2017-10-08T05:15:32.990Z,14.00
2017-10-08T05:16:32.988Z,14.04
2017-10-08T05:17:32.987Z,14.14
2017-10-08T05:18:32.981Z,14.15
2017-10-08T05:19:32.978Z,14.25
2017-10-08T05:20:32.972Z,14.23
2017-10-08T05:21:32.974Z,14.15
2017-10-08T05:22:32.968Z,14.15
2017-10-08T05:23:32.964Z,14.17
2017-10-08T05:24:32.966Z,14.00
2017-10-08T05:25:32.956Z,14.03
2017-10-08T05:26:32.955Z,14.15
2017-10-08T05:27:32.951Z,14.10
2017-10-08T05:28:32.949Z,14.29
2017-10-08T05:29:32.945Z,14.22
2017-10-08T05:30:32.941Z,14.20
2017-10-08T05:31:32.934Z,14.30
2017-10-08T05:32:32.934Z,14.25
2017-10-08T05:33:32.927Z,14.26
2017-10-08T05:34:32.929Z,14.15
2017-10-08T05:35:32.922Z,14.26
2017-10-08T05:36:32.921Z,14.25
2017-10-08T05:37:32.920Z,14.36
2017-10-08T05:38:32.909Z,14.15
2017-10-08T05:39:32.907Z,14.32
2017-10-08T05:40:32.904Z,14.18
2017-10-08T05:41:32.905Z,14.25
2017-10-08T05:42:32.899Z,14.32
2017-10-08T05:43:32.896Z,14.30
2017-10-08T05:44:32.895Z,14.35
2017-10-08T05:45:32.887Z,14.18
2017-10-08T05:46:32.888Z,14.32
2017-10-08T05:47:32.882Z,14.43
2017-10-08T05:48:32.879Z,14.22
2017-10-08T05:49:32.874Z,14.32
2017-10-08T05:50:32.867Z,14.18
2017-10-08T05:51:32.869Z,14.43
2017-10-08T05:52:32.868Z,14.40
2017-10-08T05:53:32.864Z,14.36
2017-10-08T05:54:32.860Z,14.32
2017-10-08T05:55:32.858Z,14.41
2017-10-08T05:56:32.852Z,14.33
2017-10-08T05:57:32.849Z,14.30
2017-10-08T05:58:32.848Z,14.35
2017-10-08T05:59:32.848Z,14.40
2017-10-08T06:00:32.845Z,14.45
2017-10-08T06:01:32.842Z,14.44
2017-10-08T06:02:32.833Z,14.44
2017-10-08T06:03:32.828Z,14.40
2017-10-08T06:04:32.824Z,14.36
2017-10-08T06:05:32.824Z,14.50
2017-10-08T06:06:32.821Z,14.62
2017-10-08T06:07:32.816Z,14.54
2017-10-08T06:08:32.815Z,14.40
2017-10-08T06:09:32.809Z,14.50
2017-10-08T06:10:32.810Z,14.54
2017-10-08T06:11:32.804Z,14.50
2017-10-08T06:12:32.804Z,14.48
2017-10-08T06:13:32.797Z,14.55
2017-10-08T06:14:32.797Z,14.54
2017-10-08T06:15:32.794Z,14.51
2017-10-08T06:16:32.786Z,14.60
2017-10-08T06:17:32.788Z,14.51
2017-10-08T06:18:32.781Z,14.62
2017-10-08T06:19:32.779Z,14.66
2017-10-08T06:20:32.778Z,14.65
2017-10-08T06:21:32.777Z,14.65
2017-10-08T06:22:32.784Z,14.77
2017-10-08T06:23:32.770Z,14.63
2017-10-08T06:24:32.762Z,14.65
2017-10-08T06:25:32.761Z,14.54
2017-10-08T06:26:32.759Z,14.65
2017-10-08T06:27:32.755Z,14.77
2017-10-08T06:28:32.748Z,14.82
2017-10-08T06:29:32.750Z,14.62
2017-10-08T06:30:32.740Z,14.65
2017-10-08T06:31:32.743Z,14.45
2017-10-08T06:32:32.742Z,14.29
2017-10-08T06:33:32.736Z,14.37
2017-10-08T06:34:32.736Z,14.48
2017-10-08T06:35:32.729Z,14.58
2017-10-08T06:36:32.729Z,14.62
2017-10-08T06:37:32.726Z,14.72
2017-10-08T06:38:32.722Z,14.62
2017-10-08T06:39:32.725Z,14.54
2017-10-08T06:40:32.732Z,14.59
2017-10-08T06:41:32.726Z,14.63
2017-10-08T06:42:32.713Z,14.82
2017-10-08T06:43:32.705Z,14.92
2017-10-08T06:44:32.706Z,14.96
2017-10-08T06:45:32.702Z,14.82
2017-10-08T06:46:32.692Z,14.89
2017-10-08T06:47:32.693Z,14.99
2017-10-08T06:48:32.698Z,15.04
2017-10-08T06:49:32.693Z,14.91
2017-10-08T06:50:32.688Z,14.89
2017-10-08T06:51:32.685Z,14.88
2017-10-08T06:52:32.684Z,15.03
2017-10-08T06:53:32.678Z,15.04
2017-10-08T06:54:32.678Z,14.97
2017-10-08T06:55:32.673Z,15.06
2017-10-08T06:56:32.672Z,15.04
2017-10-08T06:57:32.671Z,15.09
2017-10-08T06:58:32.667Z,14.89
2017-10-08T06:59:32.663Z,14.91
2017-10-08T07:00:32.672Z,15.00
2017-10-08T07:01:32.658Z,15.07
2017-10-08T07:02:32.654Z,15.09
2017-10-08T07:03:32.654Z,14.96
2017-10-08T07:04:32.649Z,14.89
2017-10-08T07:05:32.648Z,14.79
2017-10-08T07:06:32.648Z,15.02
2017-10-08T07:07:32.647Z,15.00
2017-10-08T07:08:32.640Z,15.00
2017-10-08T07:09:32.635Z,14.88
2017-10-08T07:10:32.628Z,14.79
2017-10-08T07:11:32.633Z,14.92
2017-10-08T07:12:32.629Z,14.73
2017-10-08T07:13:32.621Z,14.85
2017-10-08T07:14:32.623Z,15.00
2017-10-08T07:15:32.626Z,15.07
2017-10-08T07:16:32.615Z,15.17
2017-10-08T07:17:32.616Z,15.11
2017-10-08T07:18:32.607Z,15.15
2017-10-08T07:19:32.606Z,15.27
2017-10-08T07:20:32.607Z,15.33
2017-10-08T07:21:32.603Z,15.36
2017-10-08T07:22:32.602Z,15.07
2017-10-08T07:23:32.596Z,15.19
2017-10-08T07:24:32.594Z,15.25
2017-10-08T07:25:32.592Z,15.06
2017-10-08T07:26:32.586Z,15.11
2017-10-08T07:27:32.581Z,14.96
2017-10-08T07:28:32.583Z,15.07
2017-10-08T07:29:32.583Z,15.14
2017-10-08T07:30:32.578Z,15.09
2017-10-08T07:31:32.571Z,15.02
2017-10-08T07:32:32.571Z,14.91
2017-10-08T07:33:32.567Z,15.02
2017-10-08T07:34:32.561Z,15.15
2017-10-08T07:35:32.562Z,15.36
2017-10-08T07:36:32.557Z,15.52
2017-10-08T07:37:32.556Z,15.65
2017-10-08T07:38:32.553Z,15.70
2017-10-08T07:39:32.547Z,15.72
2017-10-08T07:40:32.546Z,15.72
2017-10-08T07:41:32.545Z,15.70
2017-10-08T07:42:32.546Z,15.44
2017-10-08T07:43:32.539Z,15.28
2017-10-08T07:44:32.537Z,15.70
2017-10-08T07:45:32.530Z,15.73
2017-10-08T07:46:32.531Z,15.79
2017-10-08T07:47:32.524Z,15.91
2017-10-08T07:48:32.523Z,15.76
2017-10-08T07:49:32.522Z,15.75
2017-10-08T07:50:32.520Z,15.79
2017-10-08T07:51:32.519Z,15.72
2017-10-08T07:52:32.515Z,15.83
2017-10-08T07:53:32.511Z,15.86
2017-10-08T07:54:32.510Z,16.01
2017-10-08T07:55:32.506Z,16.10
2017-10-08T07:56:32.504Z,15.92
2017-10-08T07:57:32.503Z,15.94
2017-10-08T07:58:32.501Z,15.97
2017-10-08T07:59:32.496Z,16.02
2017-10-08T08:00:32.498Z,15.91
2017-10-08T08:01:32.494Z,15.98
2017-10-08T08:02:32.493Z,16.10
2017-10-08T08:03:32.491Z,16.21
2017-10-08T08:04:32.489Z,16.04
2017-10-08T08:05:32.488Z,15.84
2017-10-08T08:06:32.490Z,16.05
2017-10-08T08:07:32.483Z,16.21
2017-10-08T08:08:32.484Z,16.31
2017-10-08T08:09:32.478Z,16.28
2017-10-08T08:10:32.491Z,16.49
2017-10-08T08:11:32.469Z,16.66
2017-10-08T08:12:32.474Z,16.49
2017-10-08T08:13:32.472Z,16.57
2017-10-08T08:14:32.467Z,16.42
2017-10-08T08:15:32.464Z,16.49
2017-10-08T08:16:32.466Z,16.53
2017-10-08T08:17:32.462Z,16.60
2017-10-08T08:18:32.463Z,16.65
2017-10-08T08:19:32.458Z,16.47
2017-10-08T08:20:32.456Z,16.54
2017-10-08T08:21:32.459Z,16.46
2017-10-08T08:22:32.456Z,16.28
2017-10-08T08:23:32.445Z,16.38
2017-10-08T08:24:32.444Z,16.32
2017-10-08T08:25:32.449Z,16.39
2017-10-08T08:26:32.447Z,16.46
2017-10-08T08:27:32.445Z,16.42
2017-10-08T08:28:32.442Z,16.41
2017-10-08T08:29:32.441Z,16.66
2017-10-08T08:30:32.441Z,16.47
2017-10-08T08:31:32.442Z,16.75
2017-10-08T08:32:32.439Z,16.76
2017-10-08T08:33:32.437Z,16.43
2017-10-08T08:34:32.429Z,16.57
2017-10-08T08:35:32.428Z,16.74
2017-10-08T08:36:32.426Z,16.84
2017-10-08T08:37:32.426Z,16.84
2017-10-08T08:38:32.421Z,17.05
2017-10-08T08:39:32.423Z,17.04
2017-10-08T08:40:32.422Z,17.20
2017-10-08T08:41:32.420Z,17.23
2017-10-08T08:42:32.416Z,17.23
2017-10-08T08:43:32.415Z,17.05
2017-10-08T08:44:32.413Z,16.99
2017-10-08T08:45:32.410Z,17.12
2017-10-08T08:46:32.407Z,17.30
2017-10-08T08:47:32.406Z,17.38
2017-10-08T08:48:32.401Z,17.36
2017-10-08T08:49:32.404Z,17.22
2017-10-08T08:50:32.403Z,16.93
2017-10-08T08:51:32.402Z,16.81
2017-10-08T08:52:32.388Z,16.79
2017-10-08T08:53:32.394Z,16.84
2017-10-08T08:54:32.396Z,16.89
2017-10-08T08:55:32.393Z,16.81
2017-10-08T08:56:32.393Z,16.75
2017-10-08T08:57:32.388Z,16.78
2017-10-08T08:58:32.388Z,17.11
2017-10-08T08:59:32.383Z,17.19
2017-10-08T09:00:32.382Z,17.41
2017-10-08T09:01:32.380Z,17.31
2017-10-08T09:02:32.377Z,17.08
2017-10-08T09:03:32.374Z,17.09
2017-10-08T09:04:32.379Z,17.16
2017-10-08T09:05:32.405Z,17.42
2017-10-08T09:06:32.380Z,17.60
2017-10-08T09:07:32.370Z,17.87
2017-10-08T09:08:32.367Z,18.00
2017-10-08T09:09:32.374Z,17.85
2017-10-08T09:10:32.368Z,17.94
2017-10-08T09:11:32.366Z,17.92
2017-10-08T09:12:32.362Z,17.60
2017-10-08T09:13:32.361Z,17.79
2017-10-08T09:14:32.357Z,17.56
2017-10-08T09:15:32.356Z,17.38
2017-10-08T09:16:32.357Z,17.57
2017-10-08T09:17:32.356Z,17.85
2017-10-08T09:18:32.350Z,17.70
2017-10-08T09:19:32.349Z,17.57
2017-10-08T09:20:32.354Z,17.79
2017-10-08T09:21:32.349Z,17.80
2017-10-08T09:22:32.350Z,17.85
2017-10-08T09:23:32.344Z,17.95
2017-10-08T09:24:32.341Z,18.15
2017-10-08T09:25:32.344Z,18.07
2017-10-08T09:26:32.341Z,18.04
2017-10-08T09:27:32.339Z,17.90
2017-10-08T09:28:32.347Z,17.90
2017-10-08T09:29:32.337Z,18.01
2017-10-08T09:30:32.335Z,17.97
2017-10-08T09:31:32.333Z,17.97
2017-10-08T09:32:32.336Z,18.04
2017-10-08T09:33:32.331Z,17.86
2017-10-08T09:34:32.332Z,18.04
2017-10-08T09:35:32.363Z,17.92
2017-10-08T09:36:32.328Z,18.15
2017-10-08T09:37:32.331Z,18.56
2017-10-08T09:38:32.323Z,18.70
2017-10-08T09:39:32.423Z,18.63
2017-10-08T09:40:32.321Z,18.75
2017-10-08T09:41:32.322Z,18.78
2017-10-08T09:42:32.329Z,18.81
2017-10-08T09:43:32.318Z,18.71
2017-10-08T09:44:32.319Z,18.65
2017-10-08T09:45:32.309Z,18.77
2017-10-08T09:46:32.313Z,18.59
2017-10-08T09:47:32.315Z,18.65
2017-10-08T09:48:32.313Z,18.34
2017-10-08T09:49:32.314Z,18.35
2017-10-08T09:50:32.311Z,18.38
2017-10-08T09:51:32.309Z,18.41
2017-10-08T09:52:32.309Z,18.16
2017-10-08T09:53:32.302Z,18.38
2017-10-08T09:54:32.308Z,18.66
2017-10-08T09:55:32.294Z,18.35
2017-10-08T09:56:32.306Z,18.50
2017-10-08T09:57:32.319Z,18.63
2017-10-08T09:58:32.303Z,18.78
2017-10-08T09:59:32.301Z,18.90
2017-10-08T10:00:32.301Z,18.49
2017-10-08T10:01:32.350Z,18.73
2017-10-08T10:02:32.300Z,19.21
2017-10-08T10:03:32.316Z,18.88
2017-10-08T10:04:32.298Z,19.11
2017-10-08T10:05:32.297Z,19.04
2017-10-08T10:06:32.527Z,19.52
2017-10-08T10:07:32.299Z,19.66
2017-10-08T10:08:32.291Z,19.59
2017-10-08T10:09:32.299Z,19.73
2017-10-08T10:10:32.291Z,19.66
2017-10-08T10:11:32.296Z,20.07
2017-10-08T10:12:32.294Z,19.95
2017-10-08T10:13:32.293Z,19.71
2017-10-08T10:14:32.294Z,19.66
2017-10-08T10:15:32.292Z,19.52
2017-10-08T10:16:32.299Z,19.47
2017-10-08T10:17:32.296Z,19.45
2017-10-08T10:18:32.293Z,19.11
2017-10-08T10:19:32.293Z,19.18
2017-10-08T10:20:32.296Z,19.21
2017-10-08T10:21:32.295Z,19.24
2017-10-08T10:22:32.294Z,19.33
2017-10-08T10:23:32.293Z,19.37
2017-10-08T10:24:32.291Z,19.40
2017-10-08T10:25:32.293Z,19.24
2017-10-08T10:26:32.296Z,18.77
2017-10-08T10:27:32.293Z,18.89
2017-10-08T10:28:32.296Z,19.07
2017-10-08T10:29:32.299Z,18.95
2017-10-08T10:30:32.296Z,19.02
2017-10-08T10:31:32.295Z,18.77
2017-10-08T10:32:32.299Z,18.84
2017-10-08T10:33:32.296Z,18.96
2017-10-08T10:34:32.295Z,18.70
2017-10-08T10:35:32.294Z,18.75
2017-10-08T10:36:32.301Z,18.78
2017-10-08T10:37:32.294Z,18.59
2017-10-08T10:38:32.294Z,18.70
2017-10-08T10:39:32.285Z,18.75
2017-10-08T10:40:32.292Z,18.86
2017-10-08T10:41:32.293Z,18.77
2017-10-08T10:42:32.300Z,18.66
2017-10-08T10:43:32.288Z,18.63
2017-10-08T10:44:32.296Z,18.70
2017-10-08T10:45:32.288Z,18.71
2017-10-08T10:46:32.289Z,18.68
2017-10-08T10:47:32.286Z,18.45
2017-10-08T10:48:32.285Z,18.65
2017-10-08T10:49:32.290Z,18.58
2017-10-08T10:50:32.282Z,18.33
2017-10-08T10:51:32.291Z,18.38
2017-10-08T10:52:32.285Z,17.95
2017-10-08T10:53:32.279Z,18.10
2017-10-08T10:54:32.284Z,18.20
2017-10-08T10:55:32.285Z,18.18
2017-10-08T10:56:32.287Z,18.22
2017-10-08T10:57:32.282Z,18.18
2017-10-08T10:58:32.281Z,18.25
2017-10-08T10:59:32.284Z,18.20
2017-10-08T11:00:32.281Z,18.03
2017-10-08T11:01:32.281Z,18.05
2017-10-08T11:02:32.290Z,18.10
2017-10-08T11:03:32.284Z,18.04
2017-10-08T11:04:32.280Z,18.20
2017-10-08T11:05:32.284Z,18.40
2017-10-08T11:06:32.292Z,18.44
2017-10-08T11:07:32.283Z,18.56
2017-10-08T11:08:32.276Z,18.47
2017-10-08T11:09:32.276Z,18.63
2017-10-08T11:10:32.278Z,18.98
2017-10-08T11:11:32.276Z,18.75
2017-10-08T11:12:32.275Z,18.65
2017-10-08T11:13:32.273Z,18.52
2017-10-08T11:14:32.276Z,18.38
2017-10-08T11:15:32.282Z,18.28
2017-10-08T11:16:32.278Z,18.47
2017-10-08T11:17:32.274Z,18.16
2017-10-08T11:18:32.278Z,18.03
2017-10-08T11:19:32.271Z,18.23
2017-10-08T11:20:32.272Z,18.10
2017-10-08T11:21:32.278Z,18.22
2017-10-08T11:22:32.273Z,18.40
2017-10-08T11:23:32.270Z,18.63
2017-10-08T11:24:32.270Z,18.63
2017-10-08T11:25:32.269Z,18.49
2017-10-08T11:26:32.270Z,18.16
2017-10-08T11:27:32.267Z,18.38
2017-10-08T11:28:32.265Z,18.18
2017-10-08T11:29:32.267Z,18.15
2017-10-08T11:30:32.270Z,17.90
2017-10-08T11:31:32.266Z,17.74
2017-10-08T11:32:32.266Z,17.98
2017-10-08T11:33:32.268Z,17.78
2017-10-08T11:34:32.264Z,17.87
2017-10-08T11:35:32.262Z,17.85
2017-10-08T11:36:32.265Z,17.79
2017-10-08T11:37:32.261Z,17.79
2017-10-08T11:38:32.264Z,17.41
2017-10-08T11:39:32.256Z,17.30
2017-10-08T11:40:32.261Z,16.90
2017-10-08T11:41:32.256Z,16.86
2017-10-08T11:42:32.254Z,16.94
2017-10-08T11:43:32.250Z,16.93
2017-10-08T11:44:32.251Z,17.04
2017-10-08T11:45:32.256Z,17.05
2017-10-08T11:46:32.246Z,16.76
2017-10-08T11:47:32.244Z,16.74
2017-10-08T11:48:32.246Z,16.65
2017-10-08T11:49:32.245Z,16.58
2017-10-08T11:50:32.239Z,17.01
2017-10-08T11:51:32.237Z,16.76
2017-10-08T11:52:32.235Z,17.09
2017-10-08T11:53:32.237Z,16.79
2017-10-08T11:54:32.234Z,17.01
2017-10-08T11:55:32.233Z,17.14
2017-10-08T11:56:32.228Z,17.48
2017-10-08T11:57:32.227Z,17.34
2017-10-08T11:58:32.236Z,17.45
2017-10-08T11:59:32.227Z,17.42
2017-10-08T12:00:32.222Z,17.65
2017-10-08T12:01:32.225Z,17.72
2017-10-08T12:02:32.226Z,18.03
2017-10-08T12:03:32.237Z,18.04
2017-10-08T12:04:32.216Z,17.98
2017-10-08T12:05:32.219Z,19.08
2017-10-08T12:06:32.218Z,20.55
2017-10-08T12:07:32.218Z,20.77
2017-10-08T12:08:32.215Z,21.62
2017-10-08T12:09:32.213Z,21.69
2017-10-08T12:10:32.214Z,22.11
2017-10-08T12:11:32.209Z,22.45
2017-10-08T12:12:32.233Z,23.20
2017-10-08T12:13:32.213Z,22.88
2017-10-08T12:14:32.208Z,22.76
2017-10-08T12:15:32.214Z,22.33
2017-10-08T12:16:32.216Z,21.72
2017-10-08T12:17:32.221Z,21.70
2017-10-08T12:18:32.216Z,20.85
2017-10-08T12:19:32.229Z,20.47
2017-10-08T12:20:32.223Z,21.15
2017-10-08T12:21:32.222Z,20.96
2017-10-08T12:22:32.225Z,21.61
2017-10-08T12:29:42.021Z,20.70
2017-10-08T12:30:41.993Z,20.67
2017-10-08T12:32:34.887Z,20.24
2017-10-08T12:33:34.855Z,19.86
2017-10-08T12:35:27.733Z,20.09
2017-10-08T12:36:27.731Z,20.19
2017-10-08T12:38:20.625Z,20.21
2017-10-08T12:39:20.603Z,19.74
2017-10-08T12:40:20.601Z,19.37
2017-10-08T12:41:20.600Z,19.15
2017-10-08T12:42:20.601Z,19.22
2017-10-08T12:43:20.596Z,19.55
2017-10-08T12:44:20.610Z,18.98
2017-10-08T12:45:20.603Z,19.19
2017-10-08T12:46:20.599Z,19.74
2017-10-08T12:47:20.604Z,20.24
2017-10-08T12:48:20.611Z,20.39
2017-10-08T12:49:20.606Z,20.58
2017-10-08T12:50:20.604Z,20.28
2017-10-08T12:51:20.606Z,20.11
2017-10-08T12:52:20.614Z,20.18
2017-10-08T12:53:20.612Z,20.06
2017-10-08T12:54:20.609Z,20.29
2017-10-08T12:55:20.612Z,20.18
2017-10-08T12:56:20.615Z,20.44
2017-10-08T12:57:20.613Z,20.29
2017-10-08T12:58:20.618Z,20.74
2017-10-08T12:59:20.617Z,20.87
2017-10-08T13:00:20.612Z,21.02
2017-10-08T13:01:20.617Z,20.97